sensor_id;sensor_type;location;lat;lon;timestamp;P1;durP1;ratioP1;P2;durP2;ratioP2
48263;SDS011;34086;51.076;13.722;2022-09-17T00:00:00;6.07;;;2.45;;
48263;SDS011;34086;51.076;13.722;2022-09-17T00:01:01;5.88;;;2.50;;
48263;SDS011;34086;51.076;13.722;2022-09-17T00:02:03;4.47;;;2.20;;
48263;SDS011;34086;51.076;13.722;2022-09-17T00:03:06;5.82;;;2.40;;
48263;SDS011;34086;51.076;13.722;2022-09-17T00:04:08;5.47;;;2.40;;
48263;SDS011;34086;51.076;13.722;2022-09-17T00:05:09;6.25;;;2.40;;
48263;SDS011;34086;51.076;13.722;2022-09-17T00:06:10;5.50;;;2.15;;
48263;SDS011;34086;51.076;13.722;2022-09-17T00:07:11;6.45;;;2.50;;
48263;SDS011;34086;51.076;13.722;2022-09-17T00:08:12;7.63;;;2.30;;
48263;SDS011;34086;51.076;13.722;2022-09-17T00:09:14;4.53;;;2.40;;
48263;SDS011;34086;51.076;13.722;2022-09-17T00:10:15;6.03;;;2.25;;
48263;SDS011;34086;51.076;13.722;2022-09-17T00:11:27;4.97;;;2.05;;
48263;SDS011;34086;51.076;13.722;2022-09-17T00:12:33;6.05;;;2.42;;
48263;SDS011;34086;51.076;13.722;2022-09-17T00:13:37;8.02;;;2.50;;
48263;SDS011;34086;51.076;13.722;2022-09-17T00:14:39;7.90;;;2.30;;
48263;SDS011;34086;51.076;13.722;2022-09-17T00:15:43;4.97;;;2.13;;
48263;SDS011;34086;51.076;13.722;2022-09-17T00:16:46;5.68;;;2.20;;
48263;SDS011;34086;51.076;13.722;2022-09-17T00:17:52;6.15;;;2.38;;
48263;SDS011;34086;51.076;13.722;2022-09-17T00:18:54;6.47;;;2.10;;
48263;SDS011;34086;51.076;13.722;2022-09-17T00:19:55;4.57;;;2.30;;
48263;SDS011;34086;51.076;13.722;2022-09-17T00:20:55;3.90;;;2.15;;
48263;SDS011;34086;51.076;13.722;2022-09-17T00:21:56;7.78;;;2.33;;
48263;SDS011;34086;51.076;13.722;2022-09-17T00:22:57;8.50;;;2.58;;
48263;SDS011;34086;51.076;13.722;2022-09-17T00:23:58;6.03;;;2.33;;
48263;SDS011;34086;51.076;13.722;2022-09-17T00:25:00;6.68;;;2.15;;
48263;SDS011;34086;51.076;13.722;2022-09-17T00:26:03;9.40;;;2.53;;
48263;SDS011;34086;51.076;13.722;2022-09-17T00:27:05;5.88;;;2.13;;
48263;SDS011;34086;51.076;13.722;2022-09-17T00:28:05;5.30;;;2.30;;
48263;SDS011;34086;51.076;13.722;2022-09-17T00:29:06;7.32;;;2.22;;
48263;SDS011;34086;51.076;13.722;2022-09-17T00:30:08;5.53;;;2.45;;
48263;SDS011;34086;51.076;13.722;2022-09-17T00:31:09;6.45;;;2.35;;
48263;SDS011;34086;51.076;13.722;2022-09-17T00:32:10;8.90;;;2.30;;
48263;SDS011;34086;51.076;13.722;2022-09-17T00:33:11;5.80;;;2.05;;
48263;SDS011;34086;51.076;13.722;2022-09-17T00:34:13;6.15;;;2.47;;
48263;SDS011;34086;51.076;13.722;2022-09-17T00:35:14;4.80;;;2.00;;
48263;SDS011;34086;51.076;13.722;2022-09-17T00:36:14;6.07;;;2.25;;
48263;SDS011;34086;51.076;13.722;2022-09-17T00:37:15;4.68;;;2.50;;
48263;SDS011;34086;51.076;13.722;2022-09-17T00:38:17;6.10;;;2.47;;
48263;SDS011;34086;51.076;13.722;2022-09-17T00:39:17;7.20;;;2.38;;
48263;SDS011;34086;51.076;13.722;2022-09-17T00:40:18;7.05;;;2.60;;
48263;SDS011;34086;51.076;13.722;2022-09-17T00:41:20;7.80;;;3.10;;
48263;SDS011;34086;51.076;13.722;2022-09-17T00:42:22;6.72;;;2.42;;
48263;SDS011;34086;51.076;13.722;2022-09-17T00:43:56;6.40;;;2.38;;
48263;SDS011;34086;51.076;13.722;2022-09-17T00:44:53;7.05;;;2.60;;
48263;SDS011;34086;51.076;13.722;2022-09-17T00:45:54;5.88;;;2.03;;
48263;SDS011;34086;51.076;13.722;2022-09-17T00:46:55;5.78;;;2.40;;
48263;SDS011;34086;51.076;13.722;2022-09-17T00:47:58;7.93;;;2.72;;
48263;SDS011;34086;51.076;13.722;2022-09-17T00:49:15;6.35;;;2.40;;
48263;SDS011;34086;51.076;13.722;2022-09-17T00:50:19;5.25;;;2.20;;
48263;SDS011;34086;51.076;13.722;2022-09-17T00:51:31;6.78;;;2.20;;
48263;SDS011;34086;51.076;13.722;2022-09-17T00:53:54;4.85;;;2.10;;
48263;SDS011;34086;51.076;13.722;2022-09-17T00:54:57;6.28;;;2.30;;
48263;SDS011;34086;51.076;13.722;2022-09-17T00:56:08;6.97;;;2.20;;
48263;SDS011;34086;51.076;13.722;2022-09-17T00:57:25;7.60;;;2.70;;
48263;SDS011;34086;51.076;13.722;2022-09-17T00:58:27;6.53;;;2.25;;
48263;SDS011;34086;51.076;13.722;2022-09-17T00:59:31;5.93;;;2.20;;
48263;SDS011;34086;51.076;13.722;2022-09-17T01:00:32;4.80;;;2.00;;
48263;SDS011;34086;51.076;13.722;2022-09-17T01:01:33;5.80;;;2.25;;
48263;SDS011;34086;51.076;13.722;2022-09-17T01:02:34;5.32;;;2.20;;
48263;SDS011;34086;51.076;13.722;2022-09-17T01:03:36;7.05;;;2.30;;
48263;SDS011;34086;51.076;13.722;2022-09-17T01:04:37;8.07;;;2.38;;
48263;SDS011;34086;51.076;13.722;2022-09-17T01:08:38;7.75;;;2.38;;
48263;SDS011;34086;51.076;13.722;2022-09-17T01:09:56;4.60;;;1.85;;
48263;SDS011;34086;51.076;13.722;2022-09-17T01:12:40;8.73;;;2.20;;
48263;SDS011;34086;51.076;13.722;2022-09-17T01:15:41;4.07;;;1.90;;
48263;SDS011;34086;51.076;13.722;2022-09-17T01:16:59;4.68;;;1.90;;
48263;SDS011;34086;51.076;13.722;2022-09-17T01:21:34;5.72;;;1.88;;
48263;SDS011;34086;51.076;13.722;2022-09-17T01:22:26;5.75;;;2.10;;
48263;SDS011;34086;51.076;13.722;2022-09-17T01:25:28;5.65;;;2.00;;
48263;SDS011;34086;51.076;13.722;2022-09-17T01:34:40;5.72;;;2.63;;
48263;SDS011;34086;51.076;13.722;2022-09-17T01:38:24;5.32;;;2.80;;
48263;SDS011;34086;51.076;13.722;2022-09-17T01:39:34;4.65;;;1.90;;
48263;SDS011;34086;51.076;13.722;2022-09-17T01:40:51;6.00;;;2.10;;
48263;SDS011;34086;51.076;13.722;2022-09-17T01:45:24;7.57;;;1.90;;
48263;SDS011;34086;51.076;13.722;2022-09-17T01:46:48;7.00;;;2.05;;
48263;SDS011;34086;51.076;13.722;2022-09-17T01:48:06;5.38;;;2.17;;
48263;SDS011;34086;51.076;13.722;2022-09-17T01:50:19;6.28;;;2.00;;
48263;SDS011;34086;51.076;13.722;2022-09-17T01:51:27;5.45;;;1.92;;
48263;SDS011;34086;51.076;13.722;2022-09-17T01:52:35;4.93;;;2.00;;
48263;SDS011;34086;51.076;13.722;2022-09-17T01:53:56;6.93;;;2.00;;
48263;SDS011;34086;51.076;13.722;2022-09-17T01:55:04;8.18;;;2.00;;
48263;SDS011;34086;51.076;13.722;2022-09-17T01:56:09;5.40;;;1.90;;
48263;SDS011;34086;51.076;13.722;2022-09-17T01:57:18;4.47;;;1.70;;
48263;SDS011;34086;51.076;13.722;2022-09-17T01:58:31;5.00;;;2.08;;
48263;SDS011;34086;51.076;13.722;2022-09-17T01:59:37;7.03;;;2.08;;
48263;SDS011;34086;51.076;13.722;2022-09-17T02:00:43;7.25;;;1.83;;
48263;SDS011;34086;51.076;13.722;2022-09-17T02:01:53;3.75;;;1.70;;
48263;SDS011;34086;51.076;13.722;2022-09-17T02:03:16;7.90;;;2.45;;
48263;SDS011;34086;51.076;13.722;2022-09-17T02:04:59;6.53;;;2.17;;
48263;SDS011;34086;51.076;13.722;2022-09-17T02:06:12;5.65;;;1.75;;
48263;SDS011;34086;51.076;13.722;2022-09-17T02:07:17;6.80;;;2.05;;
48263;SDS011;34086;51.076;13.722;2022-09-17T02:08:29;5.18;;;1.80;;
48263;SDS011;34086;51.076;13.722;2022-09-17T02:09:55;4.22;;;1.80;;
48263;SDS011;34086;51.076;13.722;2022-09-17T02:11:05;6.35;;;2.13;;
48263;SDS011;34086;51.076;13.722;2022-09-17T02:12:12;5.97;;;1.90;;
48263;SDS011;34086;51.076;13.722;2022-09-17T02:13:21;5.03;;;2.15;;
48263;SDS011;34086;51.076;13.722;2022-09-17T02:14:27;6.35;;;2.00;;
48263;SDS011;34086;51.076;13.722;2022-09-17T02:15:37;5.00;;;2.00;;
48263;SDS011;34086;51.076;13.722;2022-09-17T02:16:44;7.68;;;2.00;;
48263;SDS011;34086;51.076;13.722;2022-09-17T02:19:19;6.65;;;1.92;;
48263;SDS011;34086;51.076;13.722;2022-09-17T02:20:33;7.72;;;2.17;;
48263;SDS011;34086;51.076;13.722;2022-09-17T02:21:47;8.20;;;2.88;;
48263;SDS011;34086;51.076;13.722;2022-09-17T02:22:56;4.45;;;1.90;;
48263;SDS011;34086;51.076;13.722;2022-09-17T02:24:22;6.53;;;1.90;;
48263;SDS011;34086;51.076;13.722;2022-09-17T02:25:32;4.38;;;1.90;;
48263;SDS011;34086;51.076;13.722;2022-09-17T02:26:38;5.80;;;2.00;;
48263;SDS011;34086;51.076;13.722;2022-09-17T02:29:11;5.07;;;2.00;;
48263;SDS011;34086;51.076;13.722;2022-09-17T02:30:18;4.35;;;1.83;;
48263;SDS011;34086;51.076;13.722;2022-09-17T02:31:19;5.55;;;2.17;;
48263;SDS011;34086;51.076;13.722;2022-09-17T02:32:20;5.70;;;2.30;;
48263;SDS011;34086;51.076;13.722;2022-09-17T02:33:20;6.15;;;1.80;;
48263;SDS011;34086;51.076;13.722;2022-09-17T02:34:22;4.43;;;1.83;;
48263;SDS011;34086;51.076;13.722;2022-09-17T02:35:25;5.93;;;1.95;;
48263;SDS011;34086;51.076;13.722;2022-09-17T02:36:26;3.90;;;1.90;;
48263;SDS011;34086;51.076;13.722;2022-09-17T02:37:28;5.20;;;1.95;;
48263;SDS011;34086;51.076;13.722;2022-09-17T02:38:29;7.07;;;2.10;;
48263;SDS011;34086;51.076;13.722;2022-09-17T02:39:30;9.55;;;2.33;;
48263;SDS011;34086;51.076;13.722;2022-09-17T02:40:34;5.20;;;2.00;;
48263;SDS011;34086;51.076;13.722;2022-09-17T02:41:46;6.95;;;1.70;;
48263;SDS011;34086;51.076;13.722;2022-09-17T02:45:48;6.40;;;2.00;;
48263;SDS011;34086;51.076;13.722;2022-09-17T02:50:45;7.88;;;2.00;;
48263;SDS011;34086;51.076;13.722;2022-09-17T02:52:05;7.07;;;1.98;;
48263;SDS011;34086;51.076;13.722;2022-09-17T02:55:31;4.88;;;1.77;;
48263;SDS011;34086;51.076;13.722;2022-09-17T02:59:21;4.93;;;1.90;;
48263;SDS011;34086;51.076;13.722;2022-09-17T03:00:46;3.65;;;1.83;;
48263;SDS011;34086;51.076;13.722;2022-09-17T03:01:51;4.65;;;1.60;;
48263;SDS011;34086;51.076;13.722;2022-09-17T03:04:26;4.22;;;1.60;;
48263;SDS011;34086;51.076;13.722;2022-09-17T03:05:29;7.90;;;2.00;;
48263;SDS011;34086;51.076;13.722;2022-09-17T03:06:30;2.63;;;1.50;;
48263;SDS011;34086;51.076;13.722;2022-09-17T03:07:31;7.63;;;1.80;;
48263;SDS011;34086;51.076;13.722;2022-09-17T03:08:34;4.63;;;1.70;;
48263;SDS011;34086;51.076;13.722;2022-09-17T03:09:37;3.60;;;1.67;;
48263;SDS011;34086;51.076;13.722;2022-09-17T03:10:37;4.13;;;1.80;;
48263;SDS011;34086;51.076;13.722;2022-09-17T03:11:39;7.95;;;1.85;;
48263;SDS011;34086;51.076;13.722;2022-09-17T03:12:40;6.03;;;1.70;;
48263;SDS011;34086;51.076;13.722;2022-09-17T03:13:41;4.85;;;1.92;;
48263;SDS011;34086;51.076;13.722;2022-09-17T03:14:41;3.97;;;2.00;;
48263;SDS011;34086;51.076;13.722;2022-09-17T03:15:42;5.15;;;1.77;;
48263;SDS011;34086;51.076;13.722;2022-09-17T03:16:43;5.38;;;1.95;;
48263;SDS011;34086;51.076;13.722;2022-09-17T03:17:43;7.20;;;1.80;;
48263;SDS011;34086;51.076;13.722;2022-09-17T03:18:44;3.88;;;1.77;;
48263;SDS011;34086;51.076;13.722;2022-09-17T03:19:45;5.03;;;2.10;;
48263;SDS011;34086;51.076;13.722;2022-09-17T03:20:45;3.78;;;1.75;;
48263;SDS011;34086;51.076;13.722;2022-09-17T03:21:46;6.32;;;2.08;;
48263;SDS011;34086;51.076;13.722;2022-09-17T03:22:46;5.03;;;1.75;;
48263;SDS011;34086;51.076;13.722;2022-09-17T03:23:47;5.60;;;1.90;;
48263;SDS011;34086;51.076;13.722;2022-09-17T03:24:48;4.00;;;1.80;;
48263;SDS011;34086;51.076;13.722;2022-09-17T03:25:48;5.72;;;1.90;;
48263;SDS011;34086;51.076;13.722;2022-09-17T03:26:49;7.00;;;2.05;;
48263;SDS011;34086;51.076;13.722;2022-09-17T03:27:50;6.10;;;1.77;;
48263;SDS011;34086;51.076;13.722;2022-09-17T03:28:51;5.35;;;1.98;;
48263;SDS011;34086;51.076;13.722;2022-09-17T03:29:52;4.90;;;1.70;;
48263;SDS011;34086;51.076;13.722;2022-09-17T03:30:53;4.32;;;1.70;;
48263;SDS011;34086;51.076;13.722;2022-09-17T03:31:53;5.38;;;1.85;;
48263;SDS011;34086;51.076;13.722;2022-09-17T03:32:54;7.55;;;2.03;;
48263;SDS011;34086;51.076;13.722;2022-09-17T03:33:55;4.57;;;1.67;;
48263;SDS011;34086;51.076;13.722;2022-09-17T03:34:55;5.53;;;1.70;;
48263;SDS011;34086;51.076;13.722;2022-09-17T03:35:56;5.75;;;1.70;;
48263;SDS011;34086;51.076;13.722;2022-09-17T03:36:57;5.10;;;1.80;;
48263;SDS011;34086;51.076;13.722;2022-09-17T03:37:57;3.80;;;1.70;;
48263;SDS011;34086;51.076;13.722;2022-09-17T03:38:58;4.50;;;1.65;;
48263;SDS011;34086;51.076;13.722;2022-09-17T03:39:59;5.88;;;1.83;;
48263;SDS011;34086;51.076;13.722;2022-09-17T03:41:00;5.32;;;2.10;;
48263;SDS011;34086;51.076;13.722;2022-09-17T03:42:04;4.13;;;1.73;;
48263;SDS011;34086;51.076;13.722;2022-09-17T03:43:05;5.70;;;1.90;;
48263;SDS011;34086;51.076;13.722;2022-09-17T03:44:06;5.20;;;2.08;;
48263;SDS011;34086;51.076;13.722;2022-09-17T03:45:07;6.60;;;2.15;;
48263;SDS011;34086;51.076;13.722;2022-09-17T03:46:08;6.07;;;1.80;;
48263;SDS011;34086;51.076;13.722;2022-09-17T03:47:09;7.20;;;1.92;;
48263;SDS011;34086;51.076;13.722;2022-09-17T03:48:11;5.70;;;2.08;;
48263;SDS011;34086;51.076;13.722;2022-09-17T03:49:12;5.95;;;1.65;;
48263;SDS011;34086;51.076;13.722;2022-09-17T03:50:12;4.97;;;1.83;;
48263;SDS011;34086;51.076;13.722;2022-09-17T03:51:13;5.85;;;2.00;;
48263;SDS011;34086;51.076;13.722;2022-09-17T03:52:13;5.90;;;1.92;;
48263;SDS011;34086;51.076;13.722;2022-09-17T03:53:14;4.72;;;1.88;;
48263;SDS011;34086;51.076;13.722;2022-09-17T03:54:15;4.00;;;1.90;;
48263;SDS011;34086;51.076;13.722;2022-09-17T03:55:16;6.00;;;1.88;;
48263;SDS011;34086;51.076;13.722;2022-09-17T03:56:17;5.07;;;1.77;;
48263;SDS011;34086;51.076;13.722;2022-09-17T03:57:17;6.65;;;2.10;;
48263;SDS011;34086;51.076;13.722;2022-09-17T03:58:18;6.00;;;2.08;;
48263;SDS011;34086;51.076;13.722;2022-09-17T03:59:19;7.25;;;1.88;;
48263;SDS011;34086;51.076;13.722;2022-09-17T04:00:19;5.50;;;2.20;;
48263;SDS011;34086;51.076;13.722;2022-09-17T04:01:20;7.18;;;2.22;;
48263;SDS011;34086;51.076;13.722;2022-09-17T04:02:21;5.93;;;1.95;;
48263;SDS011;34086;51.076;13.722;2022-09-17T04:03:22;5.55;;;2.10;;
48263;SDS011;34086;51.076;13.722;2022-09-17T04:04:23;3.60;;;1.70;;
48263;SDS011;34086;51.076;13.722;2022-09-17T04:05:24;5.68;;;2.00;;
48263;SDS011;34086;51.076;13.722;2022-09-17T04:06:24;6.43;;;2.00;;
48263;SDS011;34086;51.076;13.722;2022-09-17T04:07:25;6.72;;;1.90;;
48263;SDS011;34086;51.076;13.722;2022-09-17T04:08:26;5.25;;;1.80;;
48263;SDS011;34086;51.076;13.722;2022-09-17T04:09:27;5.75;;;2.20;;
48263;SDS011;34086;51.076;13.722;2022-09-17T04:10:27;6.80;;;2.10;;
48263;SDS011;34086;51.076;13.722;2022-09-17T04:11:28;3.80;;;1.77;;
48263;SDS011;34086;51.076;13.722;2022-09-17T04:12:28;6.47;;;2.17;;
48263;SDS011;34086;51.076;13.722;2022-09-17T04:13:29;6.55;;;2.08;;
48263;SDS011;34086;51.076;13.722;2022-09-17T04:14:30;6.28;;;2.08;;
48263;SDS011;34086;51.076;13.722;2022-09-17T04:15:30;4.75;;;2.20;;
48263;SDS011;34086;51.076;13.722;2022-09-17T04:16:31;6.20;;;2.30;;
48263;SDS011;34086;51.076;13.722;2022-09-17T04:17:31;6.60;;;2.10;;
48263;SDS011;34086;51.076;13.722;2022-09-17T04:18:32;5.18;;;2.10;;
48263;SDS011;34086;51.076;13.722;2022-09-17T04:19:33;4.43;;;2.00;;
48263;SDS011;34086;51.076;13.722;2022-09-17T04:20:34;4.70;;;2.25;;
48263;SDS011;34086;51.076;13.722;2022-09-17T04:21:34;5.97;;;2.20;;
48263;SDS011;34086;51.076;13.722;2022-09-17T04:22:35;6.35;;;2.40;;
48263;SDS011;34086;51.076;13.722;2022-09-17T04:23:35;3.92;;;2.10;;
48263;SDS011;34086;51.076;13.722;2022-09-17T04:24:36;6.28;;;2.00;;
48263;SDS011;34086;51.076;13.722;2022-09-17T04:25:37;5.32;;;2.10;;
48263;SDS011;34086;51.076;13.722;2022-09-17T04:26:38;7.38;;;2.20;;
48263;SDS011;34086;51.076;13.722;2022-09-17T04:27:38;8.02;;;2.30;;
48263;SDS011;34086;51.076;13.722;2022-09-17T04:28:39;6.45;;;1.98;;
48263;SDS011;34086;51.076;13.722;2022-09-17T04:29:40;4.53;;;2.20;;
48263;SDS011;34086;51.076;13.722;2022-09-17T04:30:40;5.82;;;2.15;;
48263;SDS011;34086;51.076;13.722;2022-09-17T04:31:42;4.35;;;2.20;;
48263;SDS011;34086;51.076;13.722;2022-09-17T04:32:43;6.95;;;2.17;;
48263;SDS011;34086;51.076;13.722;2022-09-17T04:33:44;4.50;;;2.30;;
48263;SDS011;34086;51.076;13.722;2022-09-17T04:34:45;5.45;;;2.13;;
48263;SDS011;34086;51.076;13.722;2022-09-17T04:35:46;6.70;;;2.10;;
48263;SDS011;34086;51.076;13.722;2022-09-17T04:36:47;7.88;;;2.50;;
48263;SDS011;34086;51.076;13.722;2022-09-17T04:37:51;5.50;;;2.22;;
48263;SDS011;34086;51.076;13.722;2022-09-17T04:38:55;9.02;;;2.47;;
48263;SDS011;34086;51.076;13.722;2022-09-17T04:39:56;4.78;;;2.28;;
48263;SDS011;34086;51.076;13.722;2022-09-17T04:40:56;5.03;;;2.30;;
48263;SDS011;34086;51.076;13.722;2022-09-17T04:41:57;6.43;;;2.40;;
48263;SDS011;34086;51.076;13.722;2022-09-17T04:42:58;6.18;;;2.35;;
48263;SDS011;34086;51.076;13.722;2022-09-17T04:44:02;6.22;;;2.40;;
48263;SDS011;34086;51.076;13.722;2022-09-17T04:45:02;5.20;;;2.40;;
48263;SDS011;34086;51.076;13.722;2022-09-17T04:46:03;6.60;;;2.50;;
48263;SDS011;34086;51.076;13.722;2022-09-17T04:47:04;4.68;;;2.30;;
48263;SDS011;34086;51.076;13.722;2022-09-17T04:48:05;6.25;;;2.42;;
48263;SDS011;34086;51.076;13.722;2022-09-17T04:49:06;3.75;;;2.10;;
48263;SDS011;34086;51.076;13.722;2022-09-17T04:50:08;5.68;;;2.38;;
48263;SDS011;34086;51.076;13.722;2022-09-17T04:51:09;3.95;;;2.20;;
48263;SDS011;34086;51.076;13.722;2022-09-17T04:52:10;3.65;;;2.15;;
48263;SDS011;34086;51.076;13.722;2022-09-17T04:53:10;4.57;;;2.40;;
48263;SDS011;34086;51.076;13.722;2022-09-17T04:54:11;4.45;;;2.33;;
48263;SDS011;34086;51.076;13.722;2022-09-17T04:55:14;5.13;;;2.28;;
48263;SDS011;34086;51.076;13.722;2022-09-17T04:56:15;3.97;;;2.25;;
48263;SDS011;34086;51.076;13.722;2022-09-17T04:57:15;6.07;;;2.60;;
48263;SDS011;34086;51.076;13.722;2022-09-17T04:58:16;6.72;;;2.40;;
48263;SDS011;34086;51.076;13.722;2022-09-17T04:59:17;5.57;;;2.53;;
48263;SDS011;34086;51.076;13.722;2022-09-17T05:00:18;5.55;;;2.60;;
48263;SDS011;34086;51.076;13.722;2022-09-17T05:01:19;3.88;;;2.45;;
48263;SDS011;34086;51.076;13.722;2022-09-17T05:02:20;3.42;;;2.17;;
48263;SDS011;34086;51.076;13.722;2022-09-17T05:03:21;4.47;;;2.40;;
48263;SDS011;34086;51.076;13.722;2022-09-17T05:04:21;3.60;;;2.40;;
48263;SDS011;34086;51.076;13.722;2022-09-17T05:05:22;4.70;;;2.40;;
48263;SDS011;34086;51.076;13.722;2022-09-17T05:06:23;3.83;;;2.33;;
48263;SDS011;34086;51.076;13.722;2022-09-17T05:07:24;3.90;;;2.28;;
48263;SDS011;34086;51.076;13.722;2022-09-17T05:08:24;4.05;;;2.30;;
48263;SDS011;34086;51.076;13.722;2022-09-17T05:09:25;6.97;;;2.60;;
48263;SDS011;34086;51.076;13.722;2022-09-17T05:10:26;4.75;;;2.35;;
48263;SDS011;34086;51.076;13.722;2022-09-17T05:11:26;4.25;;;2.50;;
48263;SDS011;34086;51.076;13.722;2022-09-17T05:12:27;7.50;;;2.80;;
48263;SDS011;34086;51.076;13.722;2022-09-17T05:13:28;4.93;;;2.67;;
48263;SDS011;34086;51.076;13.722;2022-09-17T05:14:28;5.45;;;2.70;;
48263;SDS011;34086;51.076;13.722;2022-09-17T05:15:29;4.75;;;2.88;;
48263;SDS011;34086;51.076;13.722;2022-09-17T05:16:30;5.55;;;2.60;;
48263;SDS011;34086;51.076;13.722;2022-09-17T05:17:30;5.63;;;2.80;;
48263;SDS011;34086;51.076;13.722;2022-09-17T05:18:31;7.78;;;2.70;;
48263;SDS011;34086;51.076;13.722;2022-09-17T05:19:31;4.50;;;2.75;;
48263;SDS011;34086;51.076;13.722;2022-09-17T05:20:32;3.97;;;2.80;;
48263;SDS011;34086;51.076;13.722;2022-09-17T05:21:33;5.72;;;2.80;;
48263;SDS011;34086;51.076;13.722;2022-09-17T05:22:33;7.28;;;3.05;;
48263;SDS011;34086;51.076;13.722;2022-09-17T05:23:34;6.25;;;2.75;;
48263;SDS011;34086;51.076;13.722;2022-09-17T05:24:35;5.32;;;3.13;;
48263;SDS011;34086;51.076;13.722;2022-09-17T05:25:38;4.00;;;2.90;;
48263;SDS011;34086;51.076;13.722;2022-09-17T05:26:39;5.05;;;2.80;;
48263;SDS011;34086;51.076;13.722;2022-09-17T05:27:39;5.53;;;2.92;;
48263;SDS011;34086;51.076;13.722;2022-09-17T05:28:40;5.43;;;2.80;;
48263;SDS011;34086;51.076;13.722;2022-09-17T05:29:41;4.68;;;2.83;;
48263;SDS011;34086;51.076;13.722;2022-09-17T05:30:42;5.40;;;3.00;;
48263;SDS011;34086;51.076;13.722;2022-09-17T05:31:43;4.82;;;2.90;;
48263;SDS011;34086;51.076;13.722;2022-09-17T05:32:43;5.75;;;2.88;;
48263;SDS011;34086;51.076;13.722;2022-09-17T05:33:44;5.57;;;2.90;;
48263;SDS011;34086;51.076;13.722;2022-09-17T05:34:45;5.00;;;2.95;;
48263;SDS011;34086;51.076;13.722;2022-09-17T05:35:46;4.07;;;3.20;;
48263;SDS011;34086;51.076;13.722;2022-09-17T05:36:46;6.65;;;3.42;;
48263;SDS011;34086;51.076;13.722;2022-09-17T05:37:48;4.78;;;2.95;;
48263;SDS011;34086;51.076;13.722;2022-09-17T05:38:48;3.50;;;2.67;;
48263;SDS011;34086;51.076;13.722;2022-09-17T05:39:49;3.25;;;2.78;;
48263;SDS011;34086;51.076;13.722;2022-09-17T05:40:50;4.38;;;2.80;;
48263;SDS011;34086;51.076;13.722;2022-09-17T05:41:51;5.53;;;2.90;;
48263;SDS011;34086;51.076;13.722;2022-09-17T05:42:56;3.45;;;2.90;;
48263;SDS011;34086;51.076;13.722;2022-09-17T05:44:01;3.53;;;2.60;;
48263;SDS011;34086;51.076;13.722;2022-09-17T05:45:02;5.00;;;2.90;;
48263;SDS011;34086;51.076;13.722;2022-09-17T05:46:04;2.72;;;2.30;;
48263;SDS011;34086;51.076;13.722;2022-09-17T05:47:05;3.42;;;2.83;;
48263;SDS011;34086;51.076;13.722;2022-09-17T05:48:08;4.60;;;2.70;;
48263;SDS011;34086;51.076;13.722;2022-09-17T05:49:11;5.75;;;2.70;;
48263;SDS011;34086;51.076;13.722;2022-09-17T05:50:12;4.03;;;2.80;;
48263;SDS011;34086;51.076;13.722;2022-09-17T05:51:12;5.40;;;2.83;;
48263;SDS011;34086;51.076;13.722;2022-09-17T05:52:13;6.03;;;2.85;;
48263;SDS011;34086;51.076;13.722;2022-09-17T05:53:14;4.57;;;2.67;;
48263;SDS011;34086;51.076;13.722;2022-09-17T05:54:14;6.53;;;2.70;;
48263;SDS011;34086;51.076;13.722;2022-09-17T05:55:15;4.78;;;2.40;;
48263;SDS011;34086;51.076;13.722;2022-09-17T05:56:17;4.63;;;2.40;;
48263;SDS011;34086;51.076;13.722;2022-09-17T05:57:18;4.70;;;2.63;;
48263;SDS011;34086;51.076;13.722;2022-09-17T05:58:19;5.68;;;2.50;;
48263;SDS011;34086;51.076;13.722;2022-09-17T05:59:20;4.70;;;2.50;;
48263;SDS011;34086;51.076;13.722;2022-09-17T06:00:21;2.75;;;2.35;;
48263;SDS011;34086;51.076;13.722;2022-09-17T06:01:22;4.80;;;2.40;;
48263;SDS011;34086;51.076;13.722;2022-09-17T06:02:23;4.53;;;2.58;;
48263;SDS011;34086;51.076;13.722;2022-09-17T06:03:24;4.35;;;2.20;;
48263;SDS011;34086;51.076;13.722;2022-09-17T06:04:25;2.63;;;2.17;;
48263;SDS011;34086;51.076;13.722;2022-09-17T06:05:26;5.00;;;2.80;;
48263;SDS011;34086;51.076;13.722;2022-09-17T06:06:27;4.32;;;2.67;;
48263;SDS011;34086;51.076;13.722;2022-09-17T06:07:33;3.58;;;2.65;;
48263;SDS011;34086;51.076;13.722;2022-09-17T06:08:35;4.45;;;2.90;;
48263;SDS011;34086;51.076;13.722;2022-09-17T06:09:39;3.08;;;2.63;;
48263;SDS011;34086;51.076;13.722;2022-09-17T06:10:43;4.40;;;2.70;;
48263;SDS011;34086;51.076;13.722;2022-09-17T06:11:44;4.20;;;2.70;;
48263;SDS011;34086;51.076;13.722;2022-09-17T06:12:45;3.17;;;2.55;;
48263;SDS011;34086;51.076;13.722;2022-09-17T06:13:46;3.28;;;2.53;;
48263;SDS011;34086;51.076;13.722;2022-09-17T06:14:49;3.05;;;2.30;;
48263;SDS011;34086;51.076;13.722;2022-09-17T06:15:50;4.85;;;2.70;;
48263;SDS011;34086;51.076;13.722;2022-09-17T06:16:51;2.83;;;2.50;;
48263;SDS011;34086;51.076;13.722;2022-09-17T06:17:52;3.17;;;2.40;;
48263;SDS011;34086;51.076;13.722;2022-09-17T06:18:53;3.30;;;2.50;;
48263;SDS011;34086;51.076;13.722;2022-09-17T06:19:53;2.75;;;2.30;;
48263;SDS011;34086;51.076;13.722;2022-09-17T06:20:58;3.10;;;2.30;;
48263;SDS011;34086;51.076;13.722;2022-09-17T06:22:00;2.25;;;1.95;;
48263;SDS011;34086;51.076;13.722;2022-09-17T06:23:01;2.50;;;2.25;;
48263;SDS011;34086;51.076;13.722;2022-09-17T06:24:01;4.97;;;2.40;;
48263;SDS011;34086;51.076;13.722;2022-09-17T06:25:02;2.72;;;2.10;;
48263;SDS011;34086;51.076;13.722;2022-09-17T06:26:04;2.33;;;2.00;;
48263;SDS011;34086;51.076;13.722;2022-09-17T06:27:05;3.65;;;2.25;;
48263;SDS011;34086;51.076;13.722;2022-09-17T06:28:06;3.40;;;2.13;;
48263;SDS011;34086;51.076;13.722;2022-09-17T06:29:06;3.40;;;1.92;;
48263;SDS011;34086;51.076;13.722;2022-09-17T06:30:07;2.97;;;2.20;;
48263;SDS011;34086;51.076;13.722;2022-09-17T06:31:08;3.05;;;2.20;;
48263;SDS011;34086;51.076;13.722;2022-09-17T06:32:10;3.45;;;2.28;;
48263;SDS011;34086;51.076;13.722;2022-09-17T06:33:12;3.67;;;1.95;;
48263;SDS011;34086;51.076;13.722;2022-09-17T06:34:12;2.85;;;2.05;;
48263;SDS011;34086;51.076;13.722;2022-09-17T06:35:13;2.90;;;2.30;;
48263;SDS011;34086;51.076;13.722;2022-09-17T06:36:14;3.13;;;2.33;;
48263;SDS011;34086;51.076;13.722;2022-09-17T06:37:15;2.95;;;2.20;;
48263;SDS011;34086;51.076;13.722;2022-09-17T06:38:16;3.33;;;2.30;;
48263;SDS011;34086;51.076;13.722;2022-09-17T06:39:16;2.67;;;2.20;;
48263;SDS011;34086;51.076;13.722;2022-09-17T06:40:20;2.85;;;2.25;;
48263;SDS011;34086;51.076;13.722;2022-09-17T06:41:32;3.45;;;2.08;;
48263;SDS011;34086;51.076;13.722;2022-09-17T06:42:35;2.33;;;2.00;;
48263;SDS011;34086;51.076;13.722;2022-09-17T06:43:36;2.25;;;1.98;;
48263;SDS011;34086;51.076;13.722;2022-09-17T06:44:40;2.92;;;1.80;;
48263;SDS011;34086;51.076;13.722;2022-09-17T06:45:49;1.70;;;1.60;;
48263;SDS011;34086;51.076;13.722;2022-09-17T06:47:00;2.13;;;1.70;;
48263;SDS011;34086;51.076;13.722;2022-09-17T06:48:04;2.75;;;1.80;;
48263;SDS011;34086;51.076;13.722;2022-09-17T06:49:07;1.80;;;1.55;;
48263;SDS011;34086;51.076;13.722;2022-09-17T06:50:15;1.83;;;1.50;;
48263;SDS011;34086;51.076;13.722;2022-09-17T06:51:17;1.63;;;1.38;;
48263;SDS011;34086;51.076;13.722;2022-09-17T06:52:18;1.60;;;1.50;;
48263;SDS011;34086;51.076;13.722;2022-09-17T06:53:19;2.13;;;1.70;;
48263;SDS011;34086;51.076;13.722;2022-09-17T06:54:21;2.03;;;1.65;;
48263;SDS011;34086;51.076;13.722;2022-09-17T06:55:22;1.73;;;1.40;;
48263;SDS011;34086;51.076;13.722;2022-09-17T06:56:23;2.53;;;1.77;;
48263;SDS011;34086;51.076;13.722;2022-09-17T06:57:23;2.63;;;1.42;;
48263;SDS011;34086;51.076;13.722;2022-09-17T06:58:24;1.60;;;1.50;;